Time;durP1;ratioP1;P1;durP2;ratioP2;P2;SDS_P1;SDS_P2;PMS_P1;PMS_P2;Temp;Humidity;BMP_temperature;BMP_pressure;BME280_temperature;BME280_humidity;BME280_pressure;Samples;Min_cycle;Max_cycle;Signal;HPM_P1;HPM_P2
2021/11/26 00:02:17;;;;;;;17.88;9.95;;;;;;;1.13;78.82;98969.69;4786013;29;20055;-68
2021/11/26 00:04:43;;;;;;;15.73;9.73;;;;;;;0.96;79.68;98948.72;4785843;29;20177;-67
2021/11/26 00:07:09;;;;;;;17.38;9.73;;;;;;;1.15;78.63;98967.75;4785777;29;20150;-68
2021/11/26 00:09:35;;;;;;;20.40;9.88;;;;;;;1.09;79.44;98954.88;4770956;29;20063;-68
2021/11/26 00:12:02;;;;;;;17.63;10.80;;;;;;;1.08;78.84;98963.81;4785846;29;20490;-68
2021/11/26 00:14:31;;;;;;;16.15;8.30;;;;;;;1.10;79.20;98956.59;4800686;29;20477;-67
2021/11/26 00:16:58;;;;;;;15.60;7.93;;;;;;;1.09;79.23;98964.66;4785892;29;20058;-67
2021/11/26 00:19:27;;;;;;;16.85;9.13;;;;;;;1.08;79.52;98962.97;4800359;29;20533;-67
2021/11/26 00:21:54;;;;;;;16.40;8.82;;;;;;;1.07;79.16;98962.13;4837095;29;20420;-68
2021/11/26 00:24:20;;;;;;;17.17;10.73;;;;;;;0.86;79.63;98918.41;4841419;29;20088;-68
2021/11/26 00:26:47;;;;;;;15.90;9.20;;;;;;;1.05;79.47;98957.88;4841408;29;20644;-68
2021/11/26 00:29:14;;;;;;;17.25;9.88;;;;;;;0.98;79.40;98943.28;4856459;29;20144;-68
2021/11/26 00:31:40;;;;;;;15.70;7.75;;;;;;;1.04;79.73;98957.00;4856644;29;20483;-68
2021/11/26 00:34:07;;;;;;;20.52;9.95;;;;;;;1.02;79.97;98942.94;4826477;29;20408;-67
2021/11/26 00:36:34;;;;;;;19.08;9.75;;;;;;;1.04;79.73;98956.16;4857783;29;20077;-67
2021/11/26 00:39:00;;;;;;;17.05;8.05;;;;;;;0.90;79.37;98927.88;4842297;29;20057;-67
2021/11/26 00:41:27;;;;;;;18.25;10.68;;;;;;;0.95;79.88;98925.72;4858304;29;20059;-66
2021/11/26 00:43:53;;;;;;;16.23;8.15;;;;;;;0.85;79.82;98932.66;4841599;29;20072;-69
2021/11/26 00:46:19;;;;;;;16.50;9.75;;;;;;;0.92;79.87;98941.94;4857060;29;20049;-68
2021/11/26 00:48:46;;;;;;;18.88;10.05;;;;;;;0.98;79.93;98968.09;4857691;29;20335;-68
2021/11/26 00:51:12;;;;;;;18.42;7.93;;;;;;;0.95;80.26;98944.34;4862044;29;20087;-69
2021/11/26 00:53:38;;;;;;;18.67;10.20;;;;;;;0.91;80.22;98934.88;4860739;29;20432;-68
2021/11/26 00:56:05;;;;;;;21.08;9.57;;;;;;;0.94;80.17;98945.31;4861915;29;20140;-69
2021/11/26 00:58:31;;;;;;;18.02;9.18;;;;;;;0.92;80.75;98933.94;4862331;29;20093;-68
2021/11/26 01:00:57;;;;;;;18.45;9.85;;;;;;;0.68;80.50;98897.44;4860547;29;20132;-69
2021/11/26 01:03:23;;;;;;;18.50;10.52;;;;;;;0.93;80.55;98938.28;4862495;29;20580;-69
2021/11/26 01:05:50;;;;;;;17.05;10.10;;;;;;;0.85;80.76;98927.34;4875698;29;20106;-69
2021/11/26 01:08:19;;;;;;;18.67;10.32;;;;;;;0.77;80.52;98917.25;4860480;29;20092;-67
2021/11/26 01:10:46;;;;;;;15.45;8.65;;;;;;;0.81;80.96;98920.53;4861893;29;20075;-67
2021/11/26 01:13:12;;;;;;;16.67;9.95;;;;;;;0.90;80.10;98928.72;4859695;29;20061;-68
2021/11/26 01:15:39;;;;;;;19.70;10.25;;;;;;;0.84;80.94;98921.19;4867926;29;20126;-68
2021/11/26 01:18:06;;;;;;;17.08;10.65;;;;;;;0.89;80.07;98936.81;4878688;29;20522;-69
2021/11/26 01:20:34;;;;;;;18.67;9.40;;;;;;;0.85;80.79;98914.03;4863113;29;20049;-68
2021/11/26 01:23:00;;;;;;;17.38;9.57;;;;;;;0.80;80.23;98906.38;4862895;29;20119;-67
2021/11/26 01:25:27;;;;;;;17.58;9.80;;;;;;;0.87;79.91;98917.44;4863460;29;20099;-67
2021/11/26 01:27:53;;;;;;;16.85;9.73;;;;;;;0.88;80.01;98919.16;4878400;29;20144;-68
2021/11/26 01:30:26;;;;;;;21.90;10.40;;;;;;;0.86;80.66;98913.06;4878532;29;20053;-69
2021/11/26 01:32:53;;;;;;;18.45;10.35;;;;;;;0.79;81.11;98909.16;4879019;29;20057;-68
2021/11/26 01:35:19;;;;;;;18.80;9.98;;;;;;;0.81;80.94;98896.59;4879010;29;20064;-69
2021/11/26 01:37:45;;;;;;;19.63;10.45;;;;;;;0.62;80.23;98871.31;4877586;29;20388;-68
2021/11/26 01:40:11;;;;;;;20.88;11.77;;;;;;;0.82;80.25;98906.28;4877869;29;20049;-69
2021/11/26 01:42:37;;;;;;;20.00;12.43;;;;;;;0.84;80.26;98902.56;4878821;29;20060;-70
2021/11/26 01:45:04;;;;;;;19.20;10.70;;;;;;;0.62;80.03;98873.09;4861720;29;20064;-67
2021/11/26 01:47:29;;;;;;;19.13;10.15;;;;;;;0.79;80.15;98899.34;4861920;29;20095;-67
2021/11/26 01:49:56;;;;;;;20.10;11.60;;;;;;;0.79;80.75;98898.50;4878942;29;20049;-68
2021/11/26 01:52:22;;;;;;;18.65;12.38;;;;;;;0.80;80.43;98887.75;4862129;29;20064;-69
2021/11/26 01:54:48;;;;;;;17.73;11.10;;;;;;;0.83;79.96;98890.19;4877092;29;20090;-69
2021/11/26 01:57:16;;;;;;;18.27;10.50;;;;;;;0.59;80.16;98860.88;4862182;29;20055;-67
2021/11/26 01:59:42;;;;;;;20.45;10.85;;;;;;;0.79;80.00;98893.19;4846578;29;20057;-68
2021/11/26 02:02:09;;;;;;;20.45;11.02;;;;;;;0.75;79.84;98886.38;4879991;29;20065;-68
2021/11/26 02:04:35;;;;;;;20.50;11.68;;;;;;;0.74;79.92;98890.84;4846606;29;20061;-68
2021/11/26 02:07:00;;;;;;;19.55;12.00;;;;;;;0.78;79.85;98881.69;4877092;29;20167;-68
2021/11/26 02:09:28;;;;;;;20.60;11.20;;;;;;;0.75;80.03;98870.44;4847110;29;20107;-68
2021/11/26 02:11:53;;;;;;;18.80;10.70;;;;;;;0.80;79.82;98886.91;4862182;29;20053;-67
2021/11/26 02:14:20;;;;;;;21.00;10.30;;;;;;;0.75;79.99;98881.06;4865834;29;20435;-67
2021/11/26 02:16:48;;;;;;;21.60;11.32;;;;;;;0.45;79.63;98826.44;4859122;29;20171;-69
2021/11/26 02:19:14;;;;;;;20.73;12.88;;;;;;;0.82;79.35;98877.00;4859098;29;20073;-68
2021/11/26 02:21:41;;;;;;;19.50;9.90;;;;;;;0.79;79.53;98877.22;4828680;29;20061;-69
2021/11/26 02:24:08;;;;;;;21.13;12.48;;;;;;;0.78;79.68;98872.88;4859212;29;20045;-69
2021/11/26 02:26:38;;;;;;;20.15;11.52;;;;;;;0.80;78.78;98869.13;4860595;29;20068;-68
2021/11/26 02:29:04;;;;;;;21.65;10.30;;;;;;;0.79;79.33;98867.44;4860261;29;20049;-67
2021/11/26 02:31:30;;;;;;;20.40;10.77;;;;;;;0.79;78.94;98855.94;4858615;29;20135;-66
2021/11/26 02:33:56;;;;;;;19.35;12.23;;;;;;;0.78;78.48;98852.44;4859869;29;20539;-68
2021/11/26 02:36:21;;;;;;;20.35;10.98;;;;;;;0.48;78.59;98804.94;4858826;29;20182;-68
2021/11/26 02:38:47;;;;;;;20.33;10.90;;;;;;;0.76;78.70;98851.69;4859605;29;20510;-68
2021/11/26 02:41:26;;;;;;;21.10;11.95;;;;;;;0.69;79.14;98837.13;4859242;29;20045;-70
2021/11/26 02:43:52;;;;;;;20.50;11.48;;;;;;;0.77;78.50;98852.53;4858000;29;20428;-68
2021/11/26 02:46:21;;;;;;;19.63;9.90;;;;;;;0.75;78.56;98849.16;4842643;29;20064;-68
2021/11/26 02:48:47;;;;;;;22.15;13.73;;;;;;;0.74;78.55;98842.97;4843158;29;20084;-68
2021/11/26 02:51:13;;;;;;;19.88;12.48;;;;;;;0.79;78.39;98845.31;4827274;29;20106;-68
2021/11/26 02:53:39;;;;;;;20.77;13.05;;;;;;;0.58;78.24;98805.97;4842434;29;20058;-68
2021/11/26 02:56:05;;;;;;;20.95;13.05;;;;;;;0.78;77.59;98846.28;4827197;29;20511;-68
2021/11/26 02:58:31;;;;;;;23.95;14.40;;;;;;;0.66;78.00;98814.28;4812102;29;20073;-68
2021/11/26 03:00:58;;;;;;;20.40;12.20;;;;;;;0.79;77.93;98834.66;4842804;29;20432;-67
2021/11/26 03:03:24;;;;;;;21.77;13.10;;;;;;;0.78;78.05;98832.97;4857705;29;20058;-69
2021/11/26 03:05:58;;;;;;;23.50;13.65;;;;;;;0.61;78.68;98821.72;4842734;29;20060;-69
2021/11/26 03:08:24;;;;;;;23.02;11.77;;;;;;;0.73;78.48;98830.63;4859368;29;20109;-69
2021/11/26 03:10:51;;;;;;;21.65;12.27;;;;;;;0.74;78.63;98826.16;4842262;29;20060;-68
2021/11/26 03:13:17;;;;;;;23.05;11.93;;;;;;;0.74;77.72;98821.69;4858561;29;20194;-69
2021/11/26 03:15:44;;;;;;;22.90;14.65;;;;;;;0.76;77.71;98819.75;4842001;29;20072;-70
2021/11/26 03:18:15;;;;;;;24.92;14.63;;;;;;;0.71;77.83;98806.81;4827258;29;20054;-68
2021/11/26 03:20:41;;;;;;;22.95;13.65;;;;;;;0.75;77.44;98809.25;4857518;29;20050;-68
2021/11/26 03:23:07;;;;;;;22.58;13.80;;;;;;;0.68;77.61;98796.38;4859391;29;20065;-68
2021/11/26 03:25:33;;;;;;;24.95;12.43;;;;;;;0.72;78.06;98797.84;4858814;29;20056;-69
2021/11/26 03:27:59;;;;;;;21.10;11.27;;;;;;;0.72;77.31;98804.97;4857177;29;20064;-69
2021/11/26 03:30:25;;;;;;;23.83;15.63;;;;;;;0.68;76.80;98780.41;4842265;29;20069;-69
2021/11/26 03:32:52;;;;;;;24.17;14.70;;;;;;;0.67;77.39;98776.06;4858822;29;20575;-69
2021/11/26 03:35:19;;;;;;;23.98;14.40;;;;;;;0.68;77.64;98782.22;4857434;29;20102;-70
2021/11/26 03:37:46;;;;;;;22.77;15.77;;;;;;;0.63;77.21;98774.59;4856974;29;20473;-69
2021/11/26 03:40:14;;;;;;;23.40;12.88;;;;;;;0.64;77.67;98783.41;4857394;29;20068;-69
2021/11/26 03:42:40;;;;;;;23.65;13.70;;;;;;;0.62;77.03;98780.88;4841848;29;20065;-69
2021/11/26 03:45:07;;;;;;;26.10;12.20;;;;;;;0.60;77.22;98774.81;4857983;29;20587;-68
2021/11/26 03:47:33;;;;;;;25.85;12.45;;;;;;;0.63;77.74;98777.25;4858433;29;20136;-70
2021/11/26 03:49:59;;;;;;;29.02;15.65;;;;;;;0.58;77.06;98768.72;4857793;29;20132;-71
2021/11/26 03:52:25;;;;;;;22.88;14.43;;;;;;;0.55;77.74;98768.97;4857714;29;20072;-69
2021/11/26 03:54:51;;;;;;;24.58;14.27;;;;;;;0.55;77.45;98763.66;4873661;29;20137;-69
2021/11/26 03:57:17;;;;;;;21.35;12.82;;;;;;;0.58;76.92;98763.41;4857485;29;20404;-69
2021/11/26 03:59:43;;;;;;;25.20;16.15;;;;;;;0.59;77.68;98767.78;4841842;29;20068;-70
2021/11/26 04:02:09;;;;;;;27.42;13.93;;;;;;;0.57;77.37;98761.72;4842110;29;20068;-68
2021/11/26 04:04:36;;;;;;;28.92;15.10;;;;;;;0.59;77.03;98774.94;4858437;29;20144;-69
2021/11/26 04:07:02;;;;;;;27.10;18.25;;;;;;;0.58;76.83;98768.72;4843039;29;20057;-70
2021/11/26 04:09:28;;;;;;;29.48;17.58;;;;;;;0.38;76.68;98729.44;4860528;29;20061;-70
2021/11/26 04:11:54;;;;;;;27.95;16.83;;;;;;;0.59;77.25;98770.44;4843978;29;20118;-67
2021/11/26 04:14:20;;;;;;;25.08;15.25;;;;;;;0.53;76.90;98749.59;4860561;29;20061;-69
2021/11/26 04:16:47;;;;;;;23.10;11.20;;;;;;;0.53;77.16;98760.25;4860332;29;20073;-68
2021/11/26 04:19:13;;;;;;;26.55;14.70;;;;;;;0.53;77.09;98751.44;4845285;29;20061;-69
2021/11/26 04:21:39;;;;;;;22.83;13.70;;;;;;;0.35;76.74;98719.03;4844726;29;20061;-70
2021/11/26 04:24:05;;;;;;;24.52;13.75;;;;;;;0.55;76.46;98763.66;4848492;29;20061;-70
2021/11/26 04:26:31;;;;;;;23.40;14.43;;;;;;;0.55;76.56;98765.44;4852978;29;20089;-70
2021/11/26 04:28:59;;;;;;;23.00;13.82;;;;;;;0.57;76.77;98766.19;4866408;29;20064;-70
2021/11/26 04:31:26;;;;;;;22.52;12.98;;;;;;;0.37;76.09;98743.72;4863870;29;20077;-69
2021/11/26 04:33:55;;;;;;;22.92;12.57;;;;;;;0.40;77.01;98746.13;4867218;29;20058;-68
2021/11/26 04:36:22;;;;;;;20.65;11.27;;;;;;;0.46;76.23;98754.50;4864851;29;20209;-69
2021/11/26 04:38:48;;;;;;;23.58;13.25;;;;;;;0.53;75.50;98760.25;4862550;29;20125;-69
2021/11/26 04:41:14;;;;;;;22.55;11.02;;;;;;;0.30;76.30;98727.34;4845914;29;20065;-68
2021/11/26 04:43:40;;;;;;;20.35;12.18;;;;;;;0.44;75.53;98755.59;4861263;29;20053;-69
2021/11/26 04:46:06;;;;;;;22.67;13.40;;;;;;;0.46;75.83;98775.78;4846256;29;20076;-69
2021/11/26 04:48:32;;;;;;;21.85;13.07;;;;;;;0.35;75.32;98742.94;4861024;29;20106;-69
2021/11/26 04:50:58;;;;;;;20.27;13.60;;;;;;;0.53;75.86;98778.88;4847140;29;20076;-71
2021/11/26 04:53:23;;;;;;;21.55;12.75;;;;;;;0.50;75.38;98776.41;4847114;29;20049;-69
2021/11/26 04:55:49;;;;;;;22.33;13.88;;;;;;;0.53;75.15;98784.19;4815337;29;20467;-68
2021/11/26 04:58:16;;;;;;;20.90;10.35;;;;;;;0.41;75.59;98758.47;4861657;29;20053;-69
2021/11/26 05:00:42;;;;;;;21.30;13.57;;;;;;;0.53;74.82;98776.19;4861607;29;20057;-70
2021/11/26 05:03:08;;;;;;;20.20;12.23;;;;;;;0.54;75.30;98785.88;4846593;29;20053;-69
2021/11/26 05:05:35;;;;;;;19.38;12.77;;;;;;;0.51;75.61;98767.47;4863405;29;20530;-69
2021/11/26 05:08:01;;;;;;;21.40;11.45;;;;;;;0.55;75.46;98774.28;4861514;29;20065;-71
2021/11/26 05:10:27;;;;;;;22.15;13.77;;;;;;;0.55;75.09;98763.66;4861600;29;20140;-70
2021/11/26 05:12:56;;;;;;;21.67;12.73;;;;;;;0.54;74.94;98766.41;4845998;29;20568;-70
2021/11/26 05:15:26;;;;;;;21.52;11.50;;;;;;;0.54;74.73;98767.25;4862212;29;20144;-72
2021/11/26 05:17:52;;;;;;;;;;;;;;;0.57;74.83;98776.84;4863012;29;20073;-66
2021/11/26 05:20:18;;;;;;;22.25;12.93;;;;;;;0.41;74.79;98746.03;4866447;29;20011;-74
2021/11/26 05:22:44;;;;;;;22.10;12.07;;;;;;;0.30;74.84;98723.84;4883958;29;20056;-78
2021/11/26 05:25:10;;;;;;;19.90;10.02;;;;;;;0.42;74.76;98739.75;4846132;29;20057;-71
2021/11/26 05:27:36;;;;;;;21.02;13.05;;;;;;;0.59;74.86;98748.34;4879061;29;20071;-72
2021/11/26 05:30:03;;;;;;;19.85;10.90;;;;;;;0.65;74.45;98758.50;4844834;29;20129;-71
2021/11/26 05:32:29;;;;;;;20.02;11.70;;;;;;;0.61;75.35;98757.88;4870051;29;20148;-79
2021/11/26 05:34:54;;;;;;;21.50;12.15;;;;;;;0.67;74.64;98740.66;4865448;29;20415;-74
2021/11/26 05:37:20;;;;;;;21.25;11.85;;;;;;;0.61;74.43;98730.44;4851483;29;20053;-71
2021/11/26 05:39:46;;;;;;;21.73;12.52;;;;;;;0.46;74.86;98700.50;4857022;29;20057;-73
2021/11/26 05:42:12;;;;;;;21.00;11.82;;;;;;;0.61;74.66;98715.34;4866969;29;20053;-74
2021/11/26 05:44:38;;;;;;;20.92;11.57;;;;;;;0.62;74.85;98722.38;4864008;29;20492;-72
2021/11/26 05:47:04;;;;;;;22.80;10.60;;;;;;;0.69;74.80;98730.72;4861479;29;20506;-70
2021/11/26 05:49:30;;;;;;;21.20;11.38;;;;;;;0.69;74.94;98726.25;4878443;29;20517;-72
2021/11/26 05:51:56;;;;;;;20.48;12.50;;;;;;;0.67;74.55;98720.22;4880794;29;20068;-72
2021/11/26 05:54:22;;;;;;;19.48;9.75;;;;;;;0.64;75.14;98715.13;4849864;29;20152;-74
2021/11/26 05:56:47;;;;;;;19.65;11.95;;;;;;;0.74;74.73;98731.25;4881574;29;20088;-75
2021/11/26 05:59:13;;;;;;;21.80;11.52;;;;;;;0.70;74.78;98725.31;4835249;29;20122;-72
2021/11/26 06:01:39;;;;;;;21.88;11.82;;;;;;;0.59;75.38;98696.00;4879896;29;20057;-72
2021/11/26 06:04:05;;;;;;;25.25;13.20;;;;;;;0.64;74.82;98701.81;4882815;29;20216;-72
2021/11/26 06:06:31;;;;;;;22.17;10.20;;;;;;;0.72;75.76;98712.72;4864800;29;20061;-73
2021/11/26 06:08:57;;;;;;;22.90;12.52;;;;;;;0.71;75.57;98700.41;4859761;29;20057;-72
2021/11/26 06:11:23;;;;;;;19.92;12.20;;;;;;;0.66;75.50;98699.91;4876266;29;20060;-71
2021/11/26 06:13:49;;;;;;;22.75;12.27;;;;;;;0.63;75.50;98708.09;4856791;29;20413;-73
2021/11/26 06:16:15;;;;;;;21.73;12.10;;;;;;;0.53;75.37;98690.28;4829356;29;20061;-72
2021/11/26 06:18:41;;;;;;;21.58;11.32;;;;;;;0.71;75.88;98710.19;4870215;29;20068;-73
2021/11/26 06:21:59;;;;;;;24.27;12.73;;;;;;;0.72;75.79;98702.09;4854629;29;20101;-73
2021/11/26 06:24:44;;;;;;;20.45;11.70;;;;;;;0.65;75.93;98716.81;4828733;29;20063;-72
2021/11/26 06:27:10;;;;;;;23.35;11.05;;;;;;;0.63;75.50;98681.50;4877080;29;20053;-71
2021/11/26 06:29:36;;;;;;;22.17;11.75;;;;;;;0.75;76.01;98684.22;4876846;29;20076;-72
2021/11/26 06:32:05;;;;;;;20.08;12.00;;;;;;;0.77;75.57;98692.91;4862861;29;20053;-73
2021/11/26 06:34:31;;;;;;;22.52;13.57;;;;;;;0.57;76.05;98652.69;4862714;29;20076;-73
2021/11/26 06:36:57;;;;;;;22.35;11.55;;;;;;;0.74;75.84;98693.19;4877300;29;20053;-72
2021/11/26 06:39:23;;;;;;;19.98;10.90;;;;;;;0.75;75.62;98695.72;4880149;29;20045;-71
2021/11/26 06:41:50;;;;;;;21.85;13.10;;;;;;;0.84;75.44;98715.44;4882622;29;20197;-72
2021/11/26 06:44:16;;;;;;;22.15;10.43;;;;;;;0.83;75.37;98703.13;4845966;29;20152;-71
2021/11/26 06:46:42;;;;;;;22.95;12.02;;;;;;;0.89;75.52;98708.00;4860002;29;20049;-72
2021/11/26 06:49:08;;;;;;;25.23;11.57;;;;;;;0.87;75.70;98712.56;4844414;29;20061;-72
2021/11/26 06:51:34;;;;;;;21.58;13.32;;;;;;;0.82;75.20;98690.78;4844372;29;20435;-73
2021/11/26 06:54:00;;;;;;;23.80;13.95;;;;;;;0.91;74.74;98706.06;4859015;29;20048;-72
2021/11/26 06:56:26;;;;;;;22.30;13.43;;;;;;;0.97;74.72;98713.59;4859225;29;20061;-72
2021/11/26 06:58:55;;;;;;;23.58;12.57;;;;;;;0.98;75.06;98711.78;4857145;29;20064;-72
2021/11/26 07:01:23;;;;;;;21.75;12.95;;;;;;;0.98;75.29;98709.97;4874834;29;20515;-74
2021/11/26 07:03:49;;;;;;;25.38;13.95;;;;;;;0.99;75.13;98711.69;4859537;29;20069;-72
2021/11/26 07:06:15;;;;;;;21.35;12.70;;;;;;;1.02;75.27;98724.72;4843206;29;20512;-72
2021/11/26 07:08:41;;;;;;;21.85;12.52;;;;;;;0.89;74.87;98692.88;4826679;29;20508;-72
2021/11/26 07:11:07;;;;;;;19.67;9.30;;;;;;;0.77;75.13;98677.84;4875618;29;20068;-72
2021/11/26 07:13:33;;;;;;;22.05;10.90;;;;;;;1.06;75.61;98731.56;4859389;29;20060;-73
2021/11/26 07:15:59;;;;;;;21.25;12.40;;;;;;;1.05;75.22;98711.19;4877086;29;20492;-72
2021/11/26 07:18:24;;;;;;;21.77;11.27;;;;;;;1.08;75.39;98729.59;4843502;29;20068;-72
2021/11/26 07:20:50;;;;;;;20.55;11.40;;;;;;;1.08;75.16;98732.25;4875319;29;20120;-72
2021/11/26 07:23:16;;;;;;;20.35;10.82;;;;;;;1.13;75.60;98726.59;4856193;29;20155;-73
2021/11/26 07:25:42;;;;;;;21.15;10.25;;;;;;;1.10;75.13;98721.53;4843312;29;20103;-72
2021/11/26 07:28:08;;;;;;;21.20;9.35;;;;;;;1.03;75.17;98694.50;4876584;29;20081;-71
2021/11/26 07:30:34;;;;;;;20.80;9.77;;;;;;;1.13;75.25;98716.81;4827827;29;20053;-70
2021/11/26 07:33:00;;;;;;;20.55;10.02;;;;;;;1.01;75.01;98683.13;4844383;29;20235;-72
2021/11/26 07:35:26;;;;;;;21.23;10.85;;;;;;;1.14;75.22;98712.34;4871952;29;20137;-71
2021/11/26 07:37:52;;;;;;;19.67;9.55;;;;;;;1.11;75.11;98686.81;4858918;29;20147;-73
2021/11/26 07:40:17;;;;;;;21.50;10.93;;;;;;;1.19;75.02;98697.72;4841822;29;20076;-73
2021/11/26 07:42:44;;;;;;;22.58;11.95;;;;;;;1.11;74.85;98665.50;4860136;29;20063;-72
2021/11/26 07:45:11;;;;;;;22.20;11.82;;;;;;;1.23;75.15;98677.03;4860461;29;20057;-72
2021/11/26 07:47:37;;;;;;;21.50;10.90;;;;;;;1.12;74.95;98661.88;4874735;29;20487;-72
2021/11/26 07:50:04;;;;;;;20.48;12.25;;;;;;;1.31;74.48;98687.94;4879053;29;20151;-72
2021/11/26 07:52:31;;;;;;;24.20;11.38;;;;;;;1.24;75.06;98664.56;4838902;29;20053;-72
2021/11/26 07:54:57;;;;;;;28.10;11.57;;;;;;;1.30;74.72;98664.94;4874888;29;20049;-73
2021/11/26 07:57:23;;;;;;;21.63;12.23;;;;;;;1.28;74.54;98660.69;4875913;29;20073;-73
2021/11/26 07:59:49;;;;;;;22.00;11.90;;;;;;;1.40;74.38;98659.78;4828636;29;20099;-73
2021/11/26 08:02:15;;;;;;;19.58;10.52;;;;;;;1.35;74.13;98645.94;4859081;29;20117;-73
2021/11/26 08:04:41;;;;;;;20.33;9.70;;;;;;;1.45;74.13;98652.28;4860198;29;20053;-69
2021/11/26 08:07:07;;;;;;;24.20;11.38;;;;;;;1.32;74.14;98631.09;4858943;29;20076;-71
2021/11/26 08:09:33;;;;;;;22.15;10.38;;;;;;;1.43;74.72;98651.56;4860096;29;20140;-73
2021/11/26 08:11:59;;;;;;;22.52;11.90;;;;;;;1.34;74.46;98636.28;4859954;29;20056;-74
2021/11/26 08:14:25;;;;;;;24.05;12.52;;;;;;;1.30;73.95;98637.47;4875950;29;20056;-73
2021/11/26 08:16:54;;;;;;;19.20;10.50;;;;;;;1.49;74.74;98663.53;4874969;29;20056;-73
2021/11/26 08:19:21;;;;;;;20.17;12.75;;;;;;;1.48;74.11;98641.38;4856939;29;20116;-72
2021/11/26 08:21:51;;;;;;;21.20;12.43;;;;;;;1.47;74.57;98642.38;4875633;29;20069;-72
2021/11/26 08:24:17;;;;;;;22.95;10.43;;;;;;;1.42;74.42;98628.53;4860408;29;20053;-73
2021/11/26 08:26:44;;;;;;;24.33;11.63;;;;;;;1.40;74.47;98627.81;4858170;29;20058;-72
2021/11/26 08:29:10;;;;;;;20.13;9.40;;;;;;;1.44;74.16;98630.13;4857097;29;20049;-73
2021/11/26 08:31:37;;;;;;;19.42;9.95;;;;;;;1.50;74.15;98639.47;4844121;29;20132;-73
2021/11/26 08:34:03;;;;;;;20.08;11.38;;;;;;;1.43;74.13;98627.59;4857770;29;20053;-71
2021/11/26 08:36:29;;;;;;;20.50;11.98;;;;;;;1.50;74.48;98634.13;4876024;29;20147;-74
2021/11/26 08:38:56;;;;;;;21.88;12.00;;;;;;;1.54;74.43;98640.91;4860100;29;20147;-72
2021/11/26 08:41:22;;;;;;;19.67;11.07;;;;;;;1.47;74.62;98639.69;4858720;29;20057;-73
2021/11/26 08:43:48;;;;;;;20.77;11.38;;;;;;;1.52;74.33;98618.88;4858320;29;20056;-74
2021/11/26 08:46:15;;;;;;;21.05;11.75;;;;;;;1.44;74.31;98608.81;4876279;29;20199;-73
2021/11/26 08:48:41;;;;;;;20.27;9.98;;;;;;;1.47;74.30;98607.75;4874732;29;20045;-73
2021/11/26 08:51:08;;;;;;;21.67;12.20;;;;;;;1.46;74.11;98619.34;4878011;29;20057;-72
2021/11/26 08:53:36;;;;;;;19.63;11.93;;;;;;;1.57;74.48;98635.34;4859026;29;20153;-72
2021/11/26 08:56:02;;;;;;;22.58;11.43;;;;;;;1.49;74.72;98618.25;4860257;29;20053;-70
2021/11/26 08:58:29;;;;;;;23.15;11.35;;;;;;;1.51;74.48;98609.19;4875505;29;20061;-72
2021/11/26 09:00:56;;;;;;;21.48;11.88;;;;;;;1.48;74.49;98619.25;4869406;29;20105;-71
2021/11/26 09:03:22;;;;;;;24.10;12.48;;;;;;;1.42;74.85;98601.91;4831195;29;20045;-78
2021/11/26 09:05:48;;;;;;;20.90;12.00;;;;;;;1.50;74.83;98606.63;4877204;29;20451;-75
2021/11/26 09:08:14;;;;;;;24.95;11.75;;;;;;;1.51;74.78;98614.53;4849887;29;20056;-71
2021/11/26 09:10:42;;;;;;;24.75;11.30;;;;;;;1.37;75.03;98596.09;4846678;29;20060;-71
2021/11/26 09:13:08;;;;;;;23.25;12.40;;;;;;;1.50;74.81;98623.50;4878703;29;20053;-72
2021/11/26 09:15:35;;;;;;;22.35;13.55;;;;;;;1.51;74.79;98635.81;4863205;29;20302;-72
2021/11/26 09:18:01;;;;;;;20.25;11.13;;;;;;;1.43;75.04;98614.28;4877361;29;20456;-72
2021/11/26 09:20:28;;;;;;;20.48;11.13;;;;;;;1.46;75.31;98606.03;4877863;29;20075;-72
2021/11/26 09:22:54;;;;;;;23.50;12.88;;;;;;;1.45;75.74;98615.00;4861776;29;20596;-72
2021/11/26 09:25:20;;;;;;;18.35;7.50;;;;;;;1.50;75.70;98623.50;4847137;29;20044;-72
2021/11/26 09:27:46;;;;;;;21.30;10.93;;;;;;;1.49;75.76;98620.94;4844845;29;20050;-72
2021/11/26 09:30:15;;;;;;;20.55;12.10;;;;;;;1.45;76.06;98607.84;4860862;29;20534;-72
2021/11/26 09:32:41;;;;;;;21.90;10.68;;;;;;;1.37;76.08;98601.44;4860844;29;20053;-72
2021/11/26 09:35:08;;;;;;;19.88;11.15;;;;;;;1.47;75.97;98613.06;4875554;29;20112;-76
2021/11/26 09:37:34;;;;;;;19.13;11.65;;;;;;;1.43;76.21;98611.63;4856576;29;20082;-73
2021/11/26 09:40:00;;;;;;;24.15;12.88;;;;;;;1.37;76.12;98596.09;4832483;29;20129;-76
2021/11/26 09:42:27;;;;;;;19.02;10.63;;;;;;;1.44;77.14;98618.63;4851293;29;20081;-72
2021/11/26 09:44:56;;;;;;;20.38;10.77;;;;;;;1.28;77.21;98586.16;4859813;29;20057;-69
2021/11/26 09:47:22;;;;;;;20.83;10.27;;;;;;;1.26;77.09;98583.63;4870797;29;20475;-74
2021/11/26 09:49:48;;;;;;;21.70;12.40;;;;;;;1.40;76.78;98601.19;4836137;29;20448;-68
2021/11/26 09:52:14;;;;;;;21.52;12.27;;;;;;;1.33;77.66;98605.31;4831206;29;20057;-69
2021/11/26 09:54:43;;;;;;;21.55;11.43;;;;;;;1.32;77.35;98588.50;4872394;29;20499;-68
2021/11/26 09:57:09;;;;;;;21.13;10.25;;;;;;;1.31;77.65;98593.91;4865209;29;20061;-73
2021/11/26 09:59:39;;;;;;;25.25;10.07;;;;;;;1.44;77.66;98624.78;4866814;29;20076;-67
2021/11/26 10:02:12;;;;;;;21.60;11.48;;;;;;;1.39;77.92;98605.69;4864735;29;20411;-67
2021/11/26 10:04:38;;;;;;;21.08;12.88;;;;;;;1.32;77.95;98598.28;4865393;29;22901;-69
2021/11/26 10:07:04;;;;;;;19.60;10.93;;;;;;;1.40;77.91;98633.16;4869676;29;20049;-78
2021/11/26 10:09:33;;;;;;;20.77;12.13;;;;;;;1.21;77.84;98585.81;4874177;29;20055;-72
2021/11/26 10:12:04;;;;;;;21.70;11.95;;;;;;;1.36;78.34;98603.25;4875013;29;20129;-69
2021/11/26 10:14:35;;;;;;;22.58;10.98;;;;;;;1.41;78.35;98605.56;4875881;29;20081;-67
2021/11/26 10:17:16;;;;;;;23.05;11.48;;;;;;;1.32;78.30;98606.28;4875483;29;20531;-67
2021/11/26 10:19:48;;;;;;;20.40;10.77;;;;;;;1.42;78.38;98620.56;4858687;29;20049;-66
2021/11/26 10:22:19;;;;;;;20.88;13.05;;;;;;;1.40;78.21;98626.00;4874473;29;20113;-66
2021/11/26 10:25:09;;;;;;;23.98;11.50;;;;;;;1.42;78.88;98616.06;4877041;29;20180;-66
2021/11/26 10:27:56;;;;;;;21.45;12.18;;;;;;;1.29;78.60;98610.00;4875269;29;20057;-66
2021/11/26 10:30:34;;;;;;;20.00;11.48;;;;;;;1.32;77.98;98604.47;4874097;29;20164;-66
2021/11/26 10:33:24;;;;;;;21.33;12.13;;;;;;;1.40;78.62;98603.84;4873774;29;20136;-66
2021/11/26 10:35:55;;;;;;;21.05;11.65;;;;;;;1.45;78.97;98609.66;4874787;29;20061;-66
2021/11/26 10:38:26;;;;;;;23.25;10.02;;;;;;;1.45;78.70;98615.00;4869914;29;20060;-66
2021/11/26 10:41:05;;;;;;;19.50;11.38;;;;;;;1.43;77.86;98616.94;4875315;29;20405;-66
2021/11/26 10:43:48;;;;;;;22.67;12.57;;;;;;;1.27;78.16;98595.13;4873400;29;20053;-66
2021/11/26 10:59:49;;;;;;;21.88;11.45;;;;;;;1.40;78.14;98617.19;4836574;29;20044;-65
2021/11/26 11:02:36;;;;;;;20.23;11.95;;;;;;;1.49;78.22;98621.78;4874076;29;20063;-66
2021/11/26 11:05:04;;;;;;;23.73;9.73;;;;;;;1.40;78.26;98596.72;4872556;29;20053;-66
2021/11/26 11:07:38;;;;;;;19.35;10.38;;;;;;;1.49;77.83;98615.59;4855590;29;20053;-66
2021/11/26 11:10:05;;;;;;;20.42;11.05;;;;;;;1.40;78.09;98598.53;4873398;29;20068;-66
2021/11/26 11:12:33;;;;;;;21.95;9.57;;;;;;;1.52;77.92;98624.19;4874553;29;20135;-67
2021/11/26 11:15:02;;;;;;;22.58;11.77;;;;;;;1.51;77.79;98614.53;4874120;29;20562;-66
2021/11/26 11:17:30;;;;;;;21.27;11.32;;;;;;;1.50;77.86;98615.50;4874204;29;20483;-67
2021/11/26 11:19:59;;;;;;;21.55;11.30;;;;;;;1.53;78.13;98617.91;4874548;29;20113;-66
2021/11/26 11:22:26;;;;;;;22.35;10.15;;;;;;;1.51;77.68;98616.34;4872956;29;20372;-66
2021/11/26 11:24:53;;;;;;;23.38;12.35;;;;;;;1.35;77.58;98592.69;4873822;29;20064;-66
2021/11/26 11:27:19;;;;;;;28.77;10.88;;;;;;;1.49;77.79;98621.78;4857884;29;20060;-67
2021/11/26 11:29:45;;;;;;;22.65;9.00;;;;;;;1.54;77.47;98629.44;4872573;29;20065;-65
2021/11/26 11:32:12;;;;;;;21.55;10.75;;;;;;;1.54;77.86;98624.94;4858061;29;20084;-66
2021/11/26 11:34:38;;;;;;;21.80;10.07;;;;;;;1.53;77.73;98633.88;4857794;29;20056;-67
2021/11/26 11:37:07;;;;;;;23.48;12.43;;;;;;;1.54;77.61;98640.91;4873783;29;20061;-66
2021/11/26 11:39:50;;;;;;;23.85;11.48;;;;;;;1.44;77.08;98613.31;4870893;29;20105;-67
2021/11/26 11:42:33;;;;;;;21.95;13.52;;;;;;;1.55;77.37;98645.28;4873385;29;20060;-66